Time;durP1;ratioP1;P1;durP2;ratioP2;P2;SDS_P1;SDS_P2;PMS_P1;PMS_P2;Temp;Humidity;BMP_temperature;BMP_pressure;BME280_temperature;BME280_humidity;BME280_pressure;Samples;Min_cycle;Max_cycle;Signal;HPM_P1;HPM_P2
2022/06/16 00:00:29;;;;;;;;;21.67;20.00;;;;;21.79;52.52;101090.41;110300;1264;19708;-46
2022/06/16 00:03:03;;;;;;;;;20.67;20.33;;;;;21.83;52.26;101090.03;110322;1264;18748;-44
2022/06/16 00:05:30;;;;;;;;;20.00;20.00;;;;;21.80;52.34;101093.02;110273;1265;18914;-47
2022/06/16 00:07:57;;;;;;;;;21.33;21.00;;;;;21.75;52.54;101091.25;110279;1264;19474;-47
2022/06/16 00:10:25;;;;;;;;;25.67;23.00;;;;;21.75;52.44;101093.61;110270;1264;18730;-47
2022/06/16 00:12:52;;;;;;;;;24.00;21.00;;;;;21.76;52.32;101092.65;110293;1264;18913;-46
2022/06/16 00:15:19;;;;;;;;;21.50;21.00;;;;;21.75;52.31;101094.30;110312;1264;21890;-47
2022/06/16 00:17:47;;;;;;;;;24.67;22.00;;;;;21.72;52.50;101098.39;110320;1264;22982;-47
2022/06/16 00:20:14;;;;;;;;;21.00;21.00;;;;;21.71;52.50;101099.40;110300;1264;19028;-46
2022/06/16 00:22:41;;;;;;;;;25.33;23.00;;;;;21.71;52.55;101102.05;110262;1265;19583;-47
2022/06/16 00:25:09;;;;;;;;;27.00;24.00;;;;;21.76;52.29;101101.75;110258;1264;19036;-47
2022/06/16 00:27:36;;;;;;;;;24.33;21.33;;;;;21.77;52.36;101098.27;110251;1265;18831;-47
2022/06/16 00:30:03;;;;;;;;;21.00;21.00;;;;;21.72;52.32;101098.70;110293;1264;19920;-48
2022/06/16 00:32:30;;;;;;;;;21.00;21.00;;;;;21.66;52.58;101094.89;110080;1264;18737;-49
2022/06/16 00:34:58;;;;;;;;;25.00;23.67;;;;;21.63;52.66;101095.77;110231;1264;18864;-46
2022/06/16 00:37:25;;;;;;;;;26.33;24.33;;;;;21.64;52.68;101095.30;110279;1264;19474;-48
2022/06/16 00:39:52;;;;;;;;;23.67;21.33;;;;;21.60;52.58;101089.34;110286;1264;20125;-46
2022/06/16 00:42:20;;;;;;;;;25.00;23.33;;;;;21.55;52.71;101090.71;110290;1264;21905;-46
2022/06/16 00:44:50;;;;;;;;;25.00;22.67;;;;;21.56;52.61;101093.04;110313;1265;19655;-47
2022/06/16 00:47:17;;;;;;;;;22.00;22.00;;;;;21.59;52.49;101092.32;110264;1264;18688;-48
2022/06/16 00:49:45;;;;;;;;;24.33;23.67;;;;;21.72;52.36;101094.58;110279;1264;21058;-46
2022/06/16 00:52:12;;;;;;;;;31.50;30.00;;;;;21.73;52.35;101092.89;110273;1264;19629;-46
2022/06/16 00:54:39;;;;;;;;;38.33;37.00;;;;;21.83;52.12;101092.19;110290;1264;18709;-47
2022/06/16 00:57:06;;;;;;;;;37.00;33.33;;;;;21.81;52.12;101095.80;110290;1264;19392;-46
2022/06/16 00:59:34;;;;;;;;;33.00;29.33;;;;;21.78;52.11;101095.67;110108;1264;19911;-46
2022/06/16 01:02:03;;;;;;;;;33.00;28.67;;;;;21.79;52.19;101095.23;110237;1264;18840;-47
2022/06/16 01:07:15;;;;;;;;;25.50;24.50;;;;;21.84;51.73;101094.73;110152;1264;19484;-47
2022/06/16 01:09:42;;;;;;;;;29.67;26.67;;;;;21.78;51.94;101088.04;110257;1264;19354;-46
2022/06/16 01:14:55;;;;;;;;;26.00;25.00;;;;;21.76;51.73;101086.56;110314;1264;20923;-48
2022/06/16 01:17:22;;;;;;;;;23.33;22.00;;;;;21.73;51.91;101084.80;110282;1263;18885;-48
2022/06/16 01:19:49;;;;;;;;;28.00;24.00;;;;;21.72;51.76;101082.16;110275;1264;18913;-47
2022/06/16 01:22:17;;;;;;;;;24.00;23.67;;;;;21.71;51.64;101085.41;110279;1264;19773;-46
2022/06/16 01:24:44;;;;;;;;;27.33;24.00;;;;;21.71;51.79;101082.80;110316;1264;18918;-46
2022/06/16 01:27:11;;;;;;;;;24.67;23.00;;;;;21.66;51.82;101084.16;110328;1265;18828;-47
2022/06/16 01:29:38;;;;;;;;;22.00;21.33;;;;;21.67;51.76;101084.35;110310;1265;19690;-47
2022/06/16 01:32:06;;;;;;;;;24.33;24.33;;;;;21.64;51.72;101084.50;110292;1264;18852;-48
2022/06/16 01:34:33;;;;;;;;;21.00;21.00;;;;;21.58;51.86;101085.20;110174;1265;18824;-50
2022/06/16 01:37:00;;;;;;;;;24.67;23.67;;;;;21.58;51.90;101081.20;110251;1264;21083;-45
2022/06/16 01:39:27;;;;;;;;;21.00;21.00;;;;;21.58;51.88;101081.10;110262;1263;19322;-48
2022/06/16 01:41:55;;;;;;;;;24.00;21.67;;;;;21.59;52.01;101082.02;110321;1264;18855;-47
2022/06/16 01:44:22;;;;;;;;;24.50;24.50;;;;;21.53;52.11;101080.80;110290;1264;19792;-47
2022/06/16 01:46:50;;;;;;;;;24.67;23.67;;;;;21.52;52.19;101078.19;110296;1264;22383;-47
2022/06/16 01:49:17;;;;;;;;;24.00;23.00;;;;;21.52;52.10;101078.83;110288;1264;18787;-46
2022/06/16 01:51:44;;;;;;;;;20.67;20.00;;;;;21.50;52.23;101082.68;110264;1264;19675;-47
2022/06/16 01:54:12;;;;;;;;;26.50;24.00;;;;;21.50;52.55;101080.52;110339;1264;18793;-47
2022/06/16 01:56:39;;;;;;;;;26.67;24.00;;;;;21.48;52.45;101083.84;110324;1265;18864;-48
2022/06/16 01:59:06;;;;;;;;;27.33;24.00;;;;;21.49;52.45;101085.11;110257;1264;19483;-47
2022/06/16 02:01:34;;;;;;;;;27.00;22.00;;;;;21.44;52.93;101086.08;110263;1263;18786;-46
2022/06/16 02:04:02;;;;;;;;;25.33;21.67;;;;;21.44;52.82;101087.02;110283;1264;18913;-48
2022/06/16 02:06:30;;;;;;;;;25.00;22.67;;;;;21.51;52.60;101083.83;110312;1265;19590;-46
2022/06/16 02:08:57;;;;;;;;;26.00;25.33;;;;;21.56;52.76;101086.62;110311;1264;18805;-46
2022/06/16 02:11:25;;;;;;;;;20.00;20.00;;;;;21.57;52.68;101089.69;110305;1264;22817;-47
2022/06/16 02:13:52;;;;;;;;;21.67;21.67;;;;;21.47;52.82;101087.88;110257;1264;20093;-47
2022/06/16 02:16:19;;;;;;;;;27.00;25.50;;;;;21.42;53.05;101092.24;110232;1264;18807;-47
2022/06/16 02:18:47;;;;;;;;;27.33;25.33;;;;;21.41;53.37;101093.52;110311;1264;18836;-47
2022/06/16 02:21:14;;;;;;;;;22.00;21.67;;;;;21.42;53.43;101091.96;110164;1264;19787;-47
2022/06/16 02:23:41;;;;;;;;;24.00;24.00;;;;;21.49;53.49;101086.02;110321;1264;19543;-47
2022/06/16 02:26:08;;;;;;;;;28.33;24.67;;;;;21.36;53.66;101091.27;110288;1264;18935;-46
2022/06/16 02:28:36;;;;;;;;;25.00;22.00;;;;;21.33;53.74;101091.26;110299;1264;19569;-48
2022/06/16 02:31:03;;;;;;;;;24.00;24.00;;;;;21.33;53.60;101087.86;110288;1264;18782;-47
2022/06/16 02:33:30;;;;;;;;;25.00;24.33;;;;;21.29;53.79;101082.48;110294;1264;22406;-47
2022/06/16 02:35:57;;;;;;;;;23.67;22.00;;;;;21.20;54.17;101087.97;110215;1264;20877;-46
2022/06/16 02:38:25;;;;;;;;;21.00;21.00;;;;;21.22;54.16;101088.55;110262;1264;18876;-47
2022/06/16 02:40:52;;;;;;;;;22.67;21.00;;;;;21.20;54.11;101089.48;110226;1264;19145;-47
2022/06/16 02:43:19;;;;;;;;;28.00;26.33;;;;;21.21;54.17;101089.38;110273;1264;19513;-43
2022/06/16 02:45:46;;;;;;;;;27.00;23.00;;;;;21.22;54.05;101091.08;110155;1264;22485;-46
2022/06/16 02:48:14;;;;;;;;;27.00;23.00;;;;;21.19;54.21;101092.64;110197;1264;18946;-46
2022/06/16 02:50:41;;;;;;;;;25.00;25.00;;;;;21.19;54.13;101087.20;110318;1264;22045;-47
2022/06/16 02:53:09;;;;;;;;;24.00;22.67;;;;;21.16;53.82;101083.03;110251;1265;19012;-46
2022/06/16 02:55:36;;;;;;;;;25.00;24.00;;;;;21.17;53.85;101080.95;110294;1264;22309;-46
2022/06/16 02:58:04;;;;;;;;;28.00;22.33;;;;;21.11;54.03;101083.27;110288;1263;19667;-48
2022/06/16 03:00:31;;;;;;;;;24.67;23.00;;;;;21.10;53.65;101076.64;110294;1264;18857;-47
2022/06/16 03:02:58;;;;;;;;;28.00;24.00;;;;;21.04;54.00;101075.55;110316;1264;18825;-46
2022/06/16 03:05:26;;;;;;;;;23.00;23.00;;;;;21.07;53.86;101073.09;110228;1264;19475;-47
2022/06/16 03:07:53;;;;;;;;;27.50;23.50;;;;;21.07;53.75;101076.70;110155;1264;22766;-46
2022/06/16 03:13:01;;;;;;;;;26.00;23.33;;;;;20.94;53.98;101071.96;110205;1264;19528;-47
2022/06/16 03:15:29;;;;;;;;;23.50;23.00;;;;;20.92;54.20;101071.39;110302;1264;18764;-47
2022/06/16 03:17:56;;;;;;;;;25.00;23.33;;;;;20.98;53.90;101067.95;110340;1264;22325;-46
2022/06/16 03:20:23;;;;;;;;;23.00;22.00;;;;;20.96;53.87;101069.38;110263;1264;20038;-48
2022/06/16 03:22:50;;;;;;;;;27.00;25.00;;;;;20.88;54.00;101066.09;110203;1264;20089;-46
2022/06/16 03:25:18;;;;;;;;;25.00;24.00;;;;;20.91;54.06;101063.59;110261;1264;20610;-47
2022/06/16 03:27:45;;;;;;;;;25.00;24.00;;;;;20.90;53.92;101064.23;110290;1264;19590;-48
2022/06/16 03:30:12;;;;;;;;;24.00;21.67;;;;;20.90;54.11;101059.36;110325;1264;22980;-48
2022/06/16 03:32:40;;;;;;;;;20.00;20.00;;;;;20.86;54.21;101058.16;110270;1264;23188;-47
2022/06/16 03:35:07;;;;;;;;;24.00;23.50;;;;;20.85;54.30;101056.90;110270;1264;19470;-47
2022/06/16 03:37:34;;;;;;;;;23.33;22.67;;;;;20.82;54.15;101055.21;110266;1264;22852;-46
2022/06/16 03:40:01;;;;;;;;;27.33;24.00;;;;;20.87;54.18;101056.50;110288;1264;18902;-47
2022/06/16 03:42:30;;;;;;;;;24.00;23.67;;;;;20.86;54.01;101054.42;110235;1264;19497;-47
2022/06/16 03:44:57;;;;;;;;;26.67;24.67;;;;;20.85;53.94;101053.79;110339;1264;20984;-46
2022/06/16 03:47:24;;;;;;;;;23.00;23.00;;;;;20.88;54.02;101055.92;110207;1264;19097;-47
2022/06/16 03:49:53;;;;;;;;;24.00;23.00;;;;;20.87;54.04;101050.30;110269;1264;19590;-47
2022/06/16 03:52:20;;;;;;;;;22.67;21.00;;;;;20.95;53.92;101051.88;110279;1264;18700;-46
2022/06/16 03:54:48;;;;;;;;;23.00;21.00;;;;;20.96;53.66;101052.45;110280;1264;19147;-46
2022/06/16 03:57:15;;;;;;;;;22.00;20.67;;;;;20.93;53.60;101049.89;110284;1264;20028;-46
2022/06/16 03:59:42;;;;;;;;;24.00;23.00;;;;;20.94;53.79;101048.91;110317;1264;20213;-47
2022/06/16 04:02:10;;;;;;;;;22.67;21.00;;;;;20.95;53.73;101050.48;110282;1265;18928;-47
2022/06/16 04:04:37;;;;;;;;;24.67;21.67;;;;;20.91;53.70;101049.24;110252;1265;22066;-46
2022/06/16 04:07:04;;;;;;;;;26.00;22.33;;;;;20.91;53.47;101055.30;110266;1264;18712;-47
2022/06/16 04:09:31;;;;;;;;;26.67;20.67;;;;;20.95;53.33;101055.58;110293;1264;18977;-47
2022/06/16 04:11:59;;;;;;;;;23.00;21.67;;;;;20.96;53.34;101050.81;110259;1263;19678;-47
2022/06/16 04:14:26;;;;;;;;;22.33;21.00;;;;;20.97;53.34;101048.93;110224;1264;19103;-48
2022/06/16 04:16:54;;;;;;;;;21.33;19.33;;;;;21.02;53.02;101051.98;110181;1265;20891;-47
2022/06/16 04:19:22;;;;;;;;;21.33;20.00;;;;;21.10;52.73;101048.45;110222;1264;19636;-46
2022/06/16 04:21:49;;;;;;;;;20.00;19.33;;;;;21.12;52.68;101046.41;111233;1265;18770;-45
2022/06/16 04:24:16;;;;;;;;;24.00;23.00;;;;;21.12;52.77;101046.17;110261;1263;19313;-45
2022/06/16 04:26:45;;;;;;;;;24.50;23.50;;;;;21.04;52.63;101039.43;110280;1264;21187;-47
2022/06/16 04:29:12;;;;;;;;;21.67;21.00;;;;;21.04;52.57;101043.27;110288;1264;18686;-46
2022/06/16 04:31:39;;;;;;;;;20.33;19.33;;;;;21.05;52.51;101039.88;110214;1263;18697;-47
2022/06/16 04:34:06;;;;;;;;;23.00;22.00;;;;;21.09;52.28;101039.05;110287;1264;19531;-46
2022/06/16 04:36:34;;;;;;;;;21.00;20.00;;;;;21.12;52.41;101036.77;110276;1264;18999;-48
2022/06/16 04:39:01;;;;;;;;;21.00;20.00;;;;;21.20;52.00;101035.13;110315;1264;19117;-48
2022/06/16 04:41:28;;;;;;;;;20.00;19.33;;;;;21.31;51.82;101035.49;110264;1264;23011;-47
2022/06/16 04:43:56;;;;;;;;;20.00;18.00;;;;;21.40;52.02;101030.09;110188;1264;18698;-47
2022/06/16 04:46:23;;;;;;;;;23.00;20.00;;;;;21.48;51.71;101031.99;110273;1264;18852;-47
2022/06/16 04:48:52;;;;;;;;;19.00;19.00;;;;;21.43;51.82;101028.05;110251;1264;19612;-46
2022/06/16 04:51:19;;;;;;;;;22.50;20.50;;;;;21.41;51.87;101026.45;110272;1263;22755;-48
2022/06/16 04:53:46;;;;;;;;;21.00;21.00;;;;;21.23;51.95;101026.95;110286;1264;18801;-48
2022/06/16 04:56:13;;;;;;;;;20.00;19.33;;;;;21.17;52.68;101029.98;110298;1264;22814;-47
2022/06/16 04:58:41;;;;;;;;;28.00;26.33;;;;;21.00;53.27;101026.44;110269;1264;18701;-47
2022/06/16 05:01:08;;;;;;;;;20.33;20.33;;;;;20.92;53.41;101028.27;110245;1263;22661;-47
2022/06/16 05:03:35;;;;;;;;;22.33;21.00;;;;;20.93;54.17;101029.77;110193;1264;19525;-46
2022/06/16 05:06:02;;;;;;;;;19.00;19.00;;;;;20.88;54.46;101026.95;110336;1265;18766;-46
2022/06/16 05:08:30;;;;;;;;;22.50;21.00;;;;;21.00;54.48;101025.91;110237;1264;23046;-46
2022/06/16 05:10:57;;;;;;;;;21.00;21.00;;;;;21.19;54.01;101026.91;110215;1264;19493;-47
2022/06/16 05:13:24;;;;;;;;;23.33;23.00;;;;;21.24;53.49;101023.40;110230;1264;18850;-45
2022/06/16 05:15:52;;;;;;;;;24.67;23.67;;;;;21.01;53.75;101022.52;110212;1264;18825;-45
2022/06/16 05:18:19;;;;;;;;;19.33;19.33;;;;;20.92;53.86;101017.40;110317;1264;19853;-48
2022/06/16 05:20:46;;;;;;;;;20.00;20.00;;;;;20.99;53.85;101014.36;110237;1262;22810;-44
2022/06/16 05:23:13;;;;;;;;;21.00;20.33;;;;;21.15;53.81;101014.63;110264;1262;18865;-45
2022/06/16 05:25:41;;;;;;;;;20.00;20.00;;;;;21.07;53.63;101015.92;110152;1264;19932;-48
2022/06/16 05:28:08;;;;;;;;;23.50;21.00;;;;;21.13;53.67;101018.63;110266;1264;18919;-46
2022/06/16 05:30:35;;;;;;;;;22.67;20.00;;;;;21.16;53.41;101014.14;110242;1264;18834;-47
2022/06/16 05:33:03;;;;;;;;;23.67;23.33;;;;;21.06;53.59;101005.77;110249;1264;19512;-49
2022/06/16 05:35:30;;;;;;;;;24.33;23.00;;;;;21.00;53.73;101001.38;110216;1264;19060;-46
2022/06/16 05:37:57;;;;;;;;;21.00;20.33;;;;;21.13;53.77;100997.17;110285;1265;22877;-47
2022/06/16 05:40:25;;;;;;;;;19.67;19.00;;;;;21.48;53.51;100992.69;110296;1264;19561;-47
2022/06/16 05:42:52;;;;;;;;;17.67;16.00;;;;;21.84;52.67;100991.45;110105;1264;205261;-47
2022/06/16 05:45:20;;;;;;;;;22.00;21.00;;;;;22.09;52.40;100991.30;110288;1264;18780;-48
2022/06/16 05:47:47;;;;;;;;;20.33;20.33;;;;;22.25;52.28;100991.90;110281;1264;19936;-46
2022/06/16 05:50:15;;;;;;;;;18.00;16.67;;;;;22.41;52.26;100990.42;110090;1265;19053;-48
2022/06/16 05:52:42;;;;;;;;;19.00;19.00;;;;;22.50;52.25;100987.48;110159;1263;19409;-47
2022/06/16 05:55:09;;;;;;;;;18.33;18.33;;;;;22.58;52.29;100985.27;110191;1264;19539;-48
2022/06/16 05:57:36;;;;;;;;;17.33;17.33;;;;;22.65;52.25;100987.52;110131;1263;20697;-47
2022/06/16 06:00:04;;;;;;;;;17.00;17.00;;;;;22.73;52.45;100988.64;110214;1264;18997;-47
2022/06/16 06:02:31;;;;;;;;;17.00;14.67;;;;;22.77;52.39;100983.38;110245;1264;21178;-48
2022/06/16 06:04:58;;;;;;;;;19.00;17.00;;;;;22.78;52.44;100982.66;110243;1264;18764;-47
2022/06/16 06:07:26;;;;;;;;;18.67;17.00;;;;;22.82;52.72;100981.52;110226;1264;18886;-46
2022/06/16 06:18:08;;;;;;;;;17.67;15.33;;;;;22.99;53.68;100987.09;110329;1264;22049;-48
2022/06/16 06:20:35;;;;;;;;;17.50;17.00;;;;;22.98;53.86;100989.77;110185;1264;18851;-45
2022/06/16 06:23:03;;;;;;;;;18.67;18.00;;;;;23.04;54.19;100987.83;110211;1264;18833;-45
2022/06/16 06:25:30;;;;;;;;;15.00;15.00;;;;;23.09;54.13;100989.56;110179;1264;20961;-46
2022/06/16 06:27:57;;;;;;;;;17.00;17.00;;;;;23.12;53.39;100987.54;110243;1264;18697;-49
2022/06/16 06:30:24;;;;;;;;;17.33;17.33;;;;;23.14;52.96;100988.52;110200;1264;22123;-46
2022/06/16 06:32:52;;;;;;;;;16.67;15.00;;;;;23.15;53.16;100982.56;110300;1265;19340;-48
2022/06/16 06:35:19;;;;;;;;;14.67;14.67;;;;;23.20;53.09;100982.67;110284;1264;18733;-47
2022/06/16 06:37:46;;;;;;;;;18.00;18.00;;;;;23.22;52.72;100982.31;110243;1264;21186;-48
2022/06/16 06:40:14;;;;;;;;;16.00;14.00;;;;;23.22;52.56;100982.22;110139;1264;19655;-46
2022/06/16 06:42:41;;;;;;;;;13.00;13.00;;;;;23.17;52.69;100984.21;110257;1264;19080;-47
2022/06/16 06:45:08;;;;;;;;;17.33;17.00;;;;;23.13;52.56;100984.46;110310;1264;18819;-48
2022/06/16 06:47:36;;;;;;;;;14.67;14.00;;;;;23.09;52.43;100979.52;110292;1264;20177;-45
2022/06/16 06:50:03;;;;;;;;;14.00;14.00;;;;;23.11;52.30;100981.01;110269;1265;18908;-50
2022/06/16 06:52:30;;;;;;;;;18.00;15.00;;;;;23.10;52.52;100979.37;110265;1264;19081;-47
2022/06/16 06:54:58;;;;;;;;;14.00;13.33;;;;;23.13;52.75;100985.21;110262;1264;22753;-47
2022/06/16 06:57:25;;;;;;;;;13.67;13.33;;;;;23.16;52.98;100986.10;110223;1264;18712;-46
2022/06/16 06:59:52;;;;;;;;;14.50;14.50;;;;;23.20;53.00;100992.05;110187;1264;20918;-48
2022/06/16 07:02:19;;;;;;;;;18.00;15.00;;;;;23.22;52.92;100987.65;110136;1265;19731;-45
2022/06/16 07:04:47;;;;;;;;;14.00;13.00;;;;;23.19;53.01;100987.38;110209;1263;18727;-46
2022/06/16 07:07:14;;;;;;;;;15.00;14.00;;;;;23.15;52.98;100986.83;110041;1264;23800;-49
2022/06/16 07:09:41;;;;;;;;;14.67;14.67;;;;;23.10;53.01;100985.96;110160;1264;19463;-46
2022/06/16 07:12:13;;;;;;;;;14.00;13.33;;;;;23.09;53.02;100989.36;110112;1264;23079;-49
2022/06/16 07:14:40;;;;;;;;;13.00;13.00;;;;;23.10;53.53;100991.47;110107;1262;18928;-49
2022/06/16 07:17:08;;;;;;;;;13.50;13.50;;;;;23.11;53.43;100989.30;110181;1264;23411;-47
2022/06/16 07:19:35;;;;;;;;;13.00;13.00;;;;;23.11;53.57;100986.48;110215;1264;18692;-48
2022/06/16 07:22:03;;;;;;;;;14.67;14.33;;;;;23.04;52.65;100986.84;110212;1264;18830;-45
2022/06/16 07:24:30;;;;;;;;;17.67;17.00;;;;;22.79;51.64;100991.73;110130;1264;22121;-47
2022/06/16 07:26:57;;;;;;;;;19.00;19.00;;;;;22.59;51.46;100989.54;110248;1265;21399;-49
2022/06/16 07:29:25;;;;;;;;;19.00;18.00;;;;;22.58;51.43;100981.04;110178;1265;18937;-47
2022/06/16 07:31:52;;;;;;;;;18.00;18.00;;;;;22.57;50.93;100984.50;110053;1264;19600;-47
2022/06/16 07:34:19;;;;;;;;;19.00;17.00;;;;;22.58;50.70;100983.87;110003;1264;18783;-47
2022/06/16 07:36:46;;;;;;;;;20.00;19.00;;;;;22.60;50.86;100989.55;110098;1264;18809;-46
2022/06/16 07:39:14;;;;;;;;;17.00;15.00;;;;;22.58;50.21;100989.40;110268;1264;22872;-45
2022/06/16 07:41:41;;;;;;;;;17.67;15.33;;;;;22.56;49.94;100988.05;110214;1264;18851;-48
2022/06/16 07:44:08;;;;;;;;;17.33;14.67;;;;;22.57;49.60;100987.16;110233;1264;20984;-47
2022/06/16 07:46:35;;;;;;;;;17.00;17.00;;;;;22.63;49.41;100988.52;110245;1263;19353;-45
2022/06/16 07:49:03;;;;;;;;;15.00;14.33;;;;;22.68;48.98;100985.36;110190;1265;18879;-46
2022/06/16 07:51:30;;;;;;;;;17.33;16.00;;;;;22.55;49.02;100984.75;110186;1264;18809;-46
2022/06/16 07:53:57;;;;;;;;;17.00;15.33;;;;;22.72;49.02;100987.48;110203;1265;19803;-45
2022/06/16 07:56:24;;;;;;;;;15.00;15.00;;;;;22.78;48.88;100984.39;110202;1264;18911;-47
2022/06/16 07:58:52;;;;;;;;;18.33;17.00;;;;;22.75;48.29;100982.58;110137;1264;19120;-46
2022/06/16 08:01:19;;;;;;;;;15.00;15.00;;;;;22.70;48.52;100982.38;110193;1264;19599;-49
2022/06/16 08:03:47;;;;;;;;;17.67;17.67;;;;;22.72;48.23;100983.47;110181;1264;22777;-47
2022/06/16 08:06:15;;;;;;;;;18.00;17.33;;;;;22.76;48.24;100987.66;110279;1264;19103;-48
2022/06/16 08:08:43;;;;;;;;;21.00;18.00;;;;;22.75;47.97;100984.41;110135;1264;19524;-46
2022/06/16 08:12:03;;;;;;;;;50.67;43.00;;;;;22.85;48.30;100978.80;110139;1262;22966;-47
2022/06/16 08:13:58;;;;;;;;;33.00;29.50;;;;;23.07;48.32;100969.77;110235;1264;20971;-50
2022/06/16 08:16:25;;;;;;;;;34.00;26.00;;;;;23.19;48.26;100962.92;110253;1264;19750;-47
2022/06/16 08:18:53;;;;;;;;;31.67;27.00;;;;;23.23;48.69;100968.19;110186;1264;18802;-46
2022/06/16 08:21:20;;;;;;;;;30.67;26.33;;;;;23.23;48.45;100962.71;110205;1264;19275;-48
2022/06/16 08:23:47;;;;;;;;;26.33;23.33;;;;;23.22;48.43;100962.70;110278;1264;19495;-45
2022/06/16 08:26:15;;;;;;;;;21.00;18.00;;;;;23.24;48.17;100964.27;110205;1265;18956;-45
2022/06/16 08:28:43;;;;;;;;;22.00;18.67;;;;;23.08;47.96;100960.86;109995;1264;19639;-47
2022/06/16 08:31:10;;;;;;;;;18.33;18.00;;;;;23.10;47.92;100961.77;110260;1265;19457;-46
2022/06/16 08:33:37;;;;;;;;;18.00;18.00;;;;;23.22;47.64;100962.08;110285;1264;18747;-46
2022/06/16 08:36:05;;;;;;;;;18.33;16.33;;;;;23.31;47.30;100960.95;110322;1264;19125;-47
2022/06/16 08:38:32;;;;;;;;;17.67;17.00;;;;;23.45;47.35;100968.51;110292;1264;19491;-47
2022/06/16 08:41:12;;;;;;;;;19.33;16.00;;;;;23.45;47.29;100961.36;110266;1264;18719;-48
2022/06/16 08:43:39;;;;;;;;;16.00;15.33;;;;;23.45;47.15;100958.46;110238;1264;22389;-47
2022/06/16 08:46:07;;;;;;;;;16.33;16.00;;;;;23.39;47.25;100962.50;110197;1264;22347;-50
2022/06/16 08:48:34;;;;;;;;;22.67;19.33;;;;;23.30;47.10;100961.98;110283;1264;22371;-47
2022/06/16 08:51:01;;;;;;;;;19.00;19.00;;;;;23.18;47.22;100960.92;110265;1264;18892;-48
2022/06/16 08:53:28;;;;;;;;;21.50;19.50;;;;;23.03;47.28;100964.16;110263;1264;21060;-48
2022/06/16 08:55:56;;;;;;;;;16.33;16.00;;;;;22.99;47.23;100957.44;110291;1264;18782;-47
2022/06/16 08:58:23;;;;;;;;;20.00;20.00;;;;;23.03;47.26;100961.36;110273;1263;19315;-47
2022/06/16 09:00:50;;;;;;;;;18.67;18.00;;;;;23.03;47.27;100958.55;110278;1264;19693;-47
2022/06/16 09:03:18;;;;;;;;;16.67;16.67;;;;;23.07;47.34;100955.20;110304;1264;18914;-47
2022/06/16 09:05:45;;;;;;;;;20.00;18.00;;;;;23.07;47.49;100954.21;110256;1264;19718;-47
2022/06/16 09:08:12;;;;;;;;;20.33;18.67;;;;;23.11;47.37;100954.34;110284;1263;19632;-47
2022/06/16 09:10:39;;;;;;;;;20.00;19.00;;;;;23.12;47.25;100954.66;110236;1264;18741;-48
2022/06/16 09:13:07;;;;;;;;;18.00;17.33;;;;;23.21;47.00;100953.14;110259;1264;18982;-47
2022/06/16 09:15:34;;;;;;;;;24.00;22.00;;;;;23.29;47.07;100955.73;110295;1265;21145;-48
2022/06/16 09:18:01;;;;;;;;;23.33;22.00;;;;;23.34;47.24;100959.01;110297;1264;18807;-48
2022/06/16 09:20:28;;;;;;;;;23.00;20.33;;;;;23.37;47.19;100959.45;110292;1264;18923;-50
2022/06/16 09:22:56;;;;;;;;;22.00;19.33;;;;;23.31;47.47;100951.98;110278;1264;20084;-47
2022/06/16 09:25:23;;;;;;;;;21.33;20.67;;;;;23.35;47.60;100949.86;110317;1264;20028;-47
2022/06/16 09:27:50;;;;;;;;;21.00;19.00;;;;;23.44;47.52;100952.84;110248;1264;19041;-48
2022/06/16 09:30:17;;;;;;;;;20.00;19.67;;;;;23.44;47.48;100953.57;110325;1264;19725;-48
2022/06/16 09:32:45;;;;;;;;;17.50;17.50;;;;;23.47;47.44;100952.59;110270;1264;22431;-47
2022/06/16 09:35:12;;;;;;;;;20.67;19.67;;;;;23.52;47.36;100949.59;110287;1264;19018;-47
2022/06/16 09:37:39;;;;;;;;;20.67;19.33;;;;;23.63;47.25;100946.63;110244;1265;19458;-48
2022/06/16 09:40:07;;;;;;;;;18.00;16.00;;;;;23.58;47.18;100948.74;110304;1263;19275;-48
2022/06/16 09:42:35;;;;;;;;;18.00;16.00;;;;;23.51;47.51;100952.11;110276;1264;22009;-46
2022/06/16 09:45:03;;;;;;;;;17.67;16.67;;;;;23.46;47.59;100951.80;110292;1264;19530;-48
2022/06/16 09:47:31;;;;;;;;;19.33;19.00;;;;;23.43;47.68;100948.15;110271;1265;18830;-46
2022/06/16 09:49:58;;;;;;;;;16.67;16.67;;;;;23.41;47.68;100952.21;110240;1263;19070;-49
2022/06/16 09:52:25;;;;;;;;;20.00;18.00;;;;;23.54;47.52;100947.54;110240;1264;22049;-47
2022/06/16 09:54:52;;;;;;;;;24.50;19.50;;;;;23.69;47.52;100946.76;110232;1265;19611;-47
2022/06/16 09:57:20;;;;;;;;;21.00;19.50;;;;;23.83;47.31;100947.65;110202;1264;23180;-48
2022/06/16 09:59:47;;;;;;;;;18.00;18.00;;;;;23.95;47.51;100945.05;110261;1264;19466;-48
2022/06/16 10:02:14;;;;;;;;;20.00;19.00;;;;;24.11;47.49;100939.70;110239;1264;18920;-48
2022/06/16 10:04:41;;;;;;;;;47.00;38.00;;;;;24.20;47.58;100929.78;110182;1265;19035;-48
2022/06/16 10:07:09;;;;;;;;;28.00;25.33;;;;;24.28;47.49;100928.46;110154;1264;22839;-50
2022/06/16 10:09:36;;;;;;;;;27.00;23.00;;;;;24.36;47.27;100931.27;110178;1264;18797;-46
2022/06/16 10:12:03;;;;;;;;;21.33;20.00;;;;;24.36;47.31;100932.08;110211;1264;23427;-48
2022/06/16 10:14:31;;;;;;;;;21.00;20.00;;;;;24.36;47.32;100927.21;110159;1265;22140;-45
2022/06/16 10:16:58;;;;;;;;;28.00;25.00;;;;;24.36;47.51;100925.16;110181;1264;18745;-48
2022/06/16 10:19:25;;;;;;;;;26.67;24.67;;;;;24.48;47.50;100925.82;110237;1264;18884;-47
2022/06/16 10:21:52;;;;;;;;;22.50;21.00;;;;;24.45;47.45;100923.44;110166;1265;19760;-48
2022/06/16 10:24:20;;;;;;;;;20.00;17.67;;;;;24.38;47.48;100925.34;110247;1264;18758;-47
2022/06/16 10:26:47;;;;;;;;;19.67;19.67;;;;;24.39;47.61;100919.37;110173;1265;18936;-50
2022/06/16 10:29:14;;;;;;;;;22.33;20.33;;;;;24.61;47.00;100914.34;110171;1264;19689;-46
2022/06/16 10:31:43;;;;;;;;;19.67;19.33;;;;;24.64;46.31;100917.65;110186;1264;18828;-46
2022/06/16 10:34:10;;;;;;;;;23.67;21.00;;;;;24.74;45.95;100918.10;110094;1264;22144;-48
2022/06/16 10:36:37;;;;;;;;;20.00;20.00;;;;;24.58;45.93;100919.08;110258;1264;20137;-48
2022/06/16 10:39:04;;;;;;;;;22.00;22.00;;;;;24.40;45.62;100915.88;110274;1264;18750;-47
2022/06/16 10:41:32;;;;;;;;;22.33;20.33;;;;;24.29;45.90;100917.31;110217;1264;18741;-48
2022/06/16 10:43:59;;;;;;;;;19.00;17.00;;;;;24.26;46.32;100918.00;110243;1264;19524;-48
2022/06/16 10:46:26;;;;;;;;;21.00;20.00;;;;;24.27;46.62;100913.37;110204;1264;18772;-49
2022/06/16 10:48:54;;;;;;;;;24.00;21.67;;;;;24.33;46.82;100914.23;110241;1264;18975;-48
2022/06/16 10:51:21;;;;;;;;;23.50;20.00;;;;;24.39;46.90;100920.47;110222;1262;20017;-47
2022/06/16 10:53:48;;;;;;;;;21.50;20.00;;;;;24.31;46.76;100914.71;110239;1262;18843;-50
2022/06/16 10:56:16;;;;;;;;;20.00;19.00;;;;;24.33;46.74;100915.00;110245;1265;20241;-46
2022/06/16 10:58:44;;;;;;;;;20.00;18.00;;;;;24.36;46.48;100914.75;110237;1264;19548;-47
2022/06/16 11:01:11;;;;;;;;;19.00;18.33;;;;;24.42;46.43;100913.13;110163;1262;22782;-48
2022/06/16 11:03:38;;;;;;;;;19.00;18.00;;;;;24.45;46.39;100911.13;110232;1262;18847;-48
2022/06/16 11:06:06;;;;;;;;;18.33;17.67;;;;;24.56;46.28;100908.95;110195;1262;19607;-48
2022/06/16 11:08:33;;;;;;;;;18.00;17.33;;;;;24.56;46.08;100911.14;110183;1262;19109;-45
2022/06/16 11:11:01;;;;;;;;;18.00;16.00;;;;;24.62;45.65;100909.36;110104;1262;19013;-46
2022/06/16 11:13:28;;;;;;;;;17.00;16.00;;;;;24.56;45.92;100905.58;110206;1262;19479;-48
2022/06/16 11:15:55;;;;;;;;;17.67;17.67;;;;;24.44;46.48;100902.01;110189;1262;21061;-46
2022/06/16 11:18:22;;;;;;;;;21.00;19.50;;;;;24.45;46.07;100908.17;110315;1265;20540;-47